sensor_id;sensor_type;location;lat;lon;timestamp;pressure;altitude;pressure_sealevel;temperature;humidity
32243;BME280;18731;42.830;24.390;2023-03-14T04:02:16;94478.31;;;0.54;64.22
32243;BME280;18731;42.830;24.390;2023-03-14T04:04:42;94496.16;;;0.57;64.12
32243;BME280;18731;42.830;24.390;2023-03-14T04:07:08;94501.94;;;0.70;64.27
32243;BME280;18731;42.830;24.390;2023-03-14T04:09:34;94479.38;;;0.48;65.36
32243;BME280;18731;42.830;24.390;2023-03-14T04:12:00;94495.13;;;0.48;65.76
32243;BME280;18731;42.830;24.390;2023-03-14T04:14:25;94486.47;;;0.38;66.49
32243;BME280;18731;42.830;24.390;2023-03-14T04:16:51;94492.50;;;0.53;66.26
32243;BME280;18731;42.830;24.390;2023-03-14T04:19:17;94493.28;;;0.49;65.42
32243;BME280;18731;42.830;24.390;2023-03-14T04:21:42;94492.75;;;0.52;65.42
32243;BME280;18731;42.830;24.390;2023-03-14T04:24:12;94498.78;;;0.57;65.51
32243;BME280;18731;42.830;24.390;2023-03-14T04:26:38;94496.69;;;0.49;65.89
32243;BME280;18731;42.830;24.390;2023-03-14T04:29:04;94500.91;;;0.55;66.09
32243;BME280;18731;42.830;24.390;2023-03-14T04:31:29;94491.97;;;0.51;65.49
32243;BME280;18731;42.830;24.390;2023-03-14T04:33:55;94495.63;;;0.60;65.26
32243;BME280;18731;42.830;24.390;2023-03-14T04:36:21;94477.50;;;0.64;65.42
32243;BME280;18731;42.830;24.390;2023-03-14T04:38:47;94485.38;;;0.74;64.92
32243;BME280;18731;42.830;24.390;2023-03-14T04:41:12;94471.44;;;0.69;64.34
32243;BME280;18731;42.830;24.390;2023-03-14T04:43:38;94485.63;;;0.78;64.46
32243;BME280;18731;42.830;24.390;2023-03-14T04:46:04;94489.56;;;0.70;64.80
32243;BME280;18731;42.830;24.390;2023-03-14T04:48:30;94481.72;;;0.65;64.89
32243;BME280;18731;42.830;24.390;2023-03-14T04:50:55;94463.88;;;0.42;66.05
32243;BME280;18731;42.830;24.390;2023-03-14T04:53:21;94468.06;;;0.48;65.48
32243;BME280;18731;42.830;24.390;2023-03-14T04:55:55;94492.50;;;0.58;65.28
32243;BME280;18731;42.830;24.390;2023-03-14T04:58:22;94483.56;;;0.49;65.47
32243;BME280;18731;42.830;24.390;2023-03-14T05:00:48;94485.66;;;0.57;64.94
32243;BME280;18731;42.830;24.390;2023-03-14T05:03:15;94476.97;;;0.62;64.69
32243;BME280;18731;42.830;24.390;2023-03-14T05:05:41;94482.75;;;0.59;65.53
32243;BME280;18731;42.830;24.390;2023-03-14T05:08:07;94482.50;;;0.55;65.26
32243;BME280;18731;42.830;24.390;2023-03-14T05:10:32;94470.19;;;0.51;65.27
32243;BME280;18731;42.830;24.390;2023-03-14T05:12:58;94465.19;;;0.54;65.31
32243;BME280;18731;42.830;24.390;2023-03-14T05:15:24;94477.75;;;0.73;65.49
32243;BME280;18731;42.830;24.390;2023-03-14T05:17:49;94476.13;;;0.92;64.27
32243;BME280;18731;42.830;24.390;2023-03-14T05:20:15;94466.09;;;1.04;64.20
32243;BME280;18731;42.830;24.390;2023-03-14T05:22:42;94462.34;;;1.20;64.46
32243;BME280;18731;42.830;24.390;2023-03-14T05:25:08;94450.47;;;1.33;63.14
32243;BME280;18731;42.830;24.390;2023-03-14T05:27:34;94444.97;;;1.29;62.99
32243;BME280;18731;42.830;24.390;2023-03-14T05:30:01;94462.22;;;1.51;62.73
32243;BME280;18731;42.830;24.390;2023-03-14T05:32:28;94460.03;;;1.63;62.38
32243;BME280;18731;42.830;24.390;2023-03-14T05:34:53;94454.72;;;1.73;62.48
32243;BME280;18731;42.830;24.390;2023-03-14T05:37:23;94457.84;;;1.75;63.28
32243;BME280;18731;42.830;24.390;2023-03-14T05:39:49;94457.31;;;1.78;63.38
32243;BME280;18731;42.830;24.390;2023-03-14T05:42:15;94450.44;;;1.82;63.05
32243;BME280;18731;42.830;24.390;2023-03-14T05:44:40;94455.06;;;2.01;62.89
32243;BME280;18731;42.830;24.390;2023-03-14T05:47:06;94450.72;;;2.15;62.24
32243;BME280;18731;42.830;24.390;2023-03-14T05:49:31;94438.06;;;2.17;62.07
32243;BME280;18731;42.830;24.390;2023-03-14T05:51:57;94453.28;;;2.25;61.81
32243;BME280;18731;42.830;24.390;2023-03-14T05:54:23;94451.72;;;2.24;61.27
32243;BME280;18731;42.830;24.390;2023-03-14T05:56:48;94441.31;;;2.09;61.96
32243;BME280;18731;42.830;24.390;2023-03-14T05:59:14;94444.63;;;2.19;61.71
32243;BME280;18731;42.830;24.390;2023-03-14T06:01:40;94447.97;;;2.30;61.28
32243;BME280;18731;42.830;24.390;2023-03-14T06:04:06;94452.22;;;2.60;60.29
32243;BME280;18731;42.830;24.390;2023-03-14T06:06:31;94446.97;;;2.84;59.71
32243;BME280;18731;42.830;24.390;2023-03-14T06:08:57;94443.91;;;3.19;59.36
32243;BME280;18731;42.830;24.390;2023-03-14T06:11:23;94449.69;;;3.64;59.40
32243;BME280;18731;42.830;24.390;2023-03-14T06:13:48;94446.53;;;4.00;58.08
32243;BME280;18731;42.830;24.390;2023-03-14T06:16:14;94440.66;;;4.03;56.72
32243;BME280;18731;42.830;24.390;2023-03-14T06:18:40;94443.84;;;4.18;55.84
32243;BME280;18731;42.830;24.390;2023-03-14T06:21:06;94423.47;;;4.38;54.88
32243;BME280;18731;42.830;24.390;2023-03-14T06:23:32;94432.50;;;4.50;54.51
32243;BME280;18731;42.830;24.390;2023-03-14T06:25:57;94436.47;;;4.80;54.11
32243;BME280;18731;42.830;24.390;2023-03-14T06:28:23;94430.31;;;5.12;54.17
32243;BME280;18731;42.830;24.390;2023-03-14T06:30:49;94405.84;;;5.21;52.15
32243;BME280;18731;42.830;24.390;2023-03-14T06:33:15;94404.84;;;5.30;51.39
32243;BME280;18731;42.830;24.390;2023-03-14T06:35:40;94395.81;;;5.31;50.81
32243;BME280;18731;42.830;24.390;2023-03-14T06:38:06;94403.41;;;5.60;51.58
32243;BME280;18731;42.830;24.390;2023-03-14T06:40:31;94402.38;;;5.84;50.98
32243;BME280;18731;42.830;24.390;2023-03-14T06:42:57;94399.50;;;6.16;49.58
32243;BME280;18731;42.830;24.390;2023-03-14T06:45:22;94396.59;;;6.49;48.80
32243;BME280;18731;42.830;24.390;2023-03-14T06:47:48;94399.41;;;6.83;48.05
32243;BME280;18731;42.830;24.390;2023-03-14T06:50:14;94397.84;;;7.22;46.44
32243;BME280;18731;42.830;24.390;2023-03-14T06:52:40;94394.16;;;7.57;45.25
32243;BME280;18731;42.830;24.390;2023-03-14T06:55:14;94402.03;;;7.97;45.07
32243;BME280;18731;42.830;24.390;2023-03-14T06:57:39;94393.09;;;8.19;46.17
32243;BME280;18731;42.830;24.390;2023-03-14T07:00:06;94387.59;;;8.50;45.38
32243;BME280;18731;42.830;24.390;2023-03-14T07:02:32;94386.44;;;8.77;44.65
32243;BME280;18731;42.830;24.390;2023-03-14T07:04:57;94359.75;;;8.94;44.70
32243;BME280;18731;42.830;24.390;2023-03-14T07:07:23;94379.66;;;9.26;44.51
32243;BME280;18731;42.830;24.390;2023-03-14T07:09:49;94383.66;;;9.61;43.73
32243;BME280;18731;42.830;24.390;2023-03-14T07:12:14;94380.53;;;10.01;41.54
32243;BME280;18731;42.830;24.390;2023-03-14T07:14:40;94347.69;;;10.09;39.66
32243;BME280;18731;42.830;24.390;2023-03-14T07:17:05;94353.47;;;10.32;38.91
32243;BME280;18731;42.830;24.390;2023-03-14T07:19:31;94356.34;;;10.60;40.09
32243;BME280;18731;42.830;24.390;2023-03-14T07:21:57;94361.09;;;11.00;39.73
32243;BME280;18731;42.830;24.390;2023-03-14T07:24:23;94346.84;;;11.32;38.47
32243;BME280;18731;42.830;24.390;2023-03-14T07:26:48;94347.22;;;11.71;38.13
32243;BME280;18731;42.830;24.390;2023-03-14T07:29:14;94343.94;;;12.02;39.41
32243;BME280;18731;42.830;24.390;2023-03-14T07:31:40;94341.13;;;12.10;35.91
32243;BME280;18731;42.830;24.390;2023-03-14T07:34:07;94344.38;;;12.32;35.41
32243;BME280;18731;42.830;24.390;2023-03-14T07:36:33;94327.44;;;12.28;33.56
32243;BME280;18731;42.830;24.390;2023-03-14T07:38:58;94333.38;;;12.65;34.54
32243;BME280;18731;42.830;24.390;2023-03-14T07:41:24;94318.00;;;12.77;32.30
32243;BME280;18731;42.830;24.390;2023-03-14T07:43:50;94327.44;;;13.03;32.30
32243;BME280;18731;42.830;24.390;2023-03-14T07:46:15;94315.97;;;13.18;32.88
32243;BME280;18731;42.830;24.390;2023-03-14T07:48:42;94316.44;;;13.39;31.98
32243;BME280;18731;42.830;24.390;2023-03-14T07:51:08;94292.06;;;13.44;29.34
32243;BME280;18731;42.830;24.390;2023-03-14T07:53:34;94310.53;;;13.49;31.30
32243;BME280;18731;42.830;24.390;2023-03-14T07:56:00;94296.00;;;13.50;30.10
32243;BME280;18731;42.830;24.390;2023-03-14T07:58:25;94303.47;;;13.76;32.10
32243;BME280;18731;42.830;24.390;2023-03-14T08:00:52;94290.47;;;13.78;31.08
32243;BME280;18731;42.830;24.390;2023-03-14T08:03:18;94291.97;;;13.95;31.00
32243;BME280;18731;42.830;24.390;2023-03-14T08:05:47;94296.59;;;14.37;30.23
32243;BME280;18731;42.830;24.390;2023-03-14T08:08:14;94283.44;;;14.51;30.58
32243;BME280;18731;42.830;24.390;2023-03-14T08:10:40;94292.88;;;14.87;29.08
32243;BME280;18731;42.830;24.390;2023-03-14T08:13:06;94288.22;;;14.84;28.28
32243;BME280;18731;42.830;24.390;2023-03-14T08:15:31;94287.25;;;14.96;26.55
32243;BME280;18731;42.830;24.390;2023-03-14T08:17:57;94276.53;;;15.22;27.75
32243;BME280;18731;42.830;24.390;2023-03-14T08:20:25;94270.38;;;15.22;27.20
32243;BME280;18731;42.830;24.390;2023-03-14T08:22:51;94275.59;;;15.37;27.68
32243;BME280;18731;42.830;24.390;2023-03-14T08:25:17;94268.28;;;15.38;26.59
32243;BME280;18731;42.830;24.390;2023-03-14T08:27:43;94261.13;;;15.72;26.53
32243;BME280;18731;42.830;24.390;2023-03-14T08:30:11;94260.47;;;15.82;26.16
32243;BME280;18731;42.830;24.390;2023-03-14T08:32:37;94256.63;;;16.17;25.48
32243;BME280;18731;42.830;24.390;2023-03-14T08:35:04;94246.97;;;16.49;23.01
32243;BME280;18731;42.830;24.390;2023-03-14T08:37:31;94243.19;;;16.57;23.17
32243;BME280;18731;42.830;24.390;2023-03-14T08:39:57;94245.03;;;16.90;23.36
32243;BME280;18731;42.830;24.390;2023-03-14T08:42:23;94228.63;;;17.10;23.80
32243;BME280;18731;42.830;24.390;2023-03-14T08:44:51;94226.88;;;17.39;24.10
32243;BME280;18731;42.830;24.390;2023-03-14T08:47:16;94217.72;;;17.57;22.68
32243;BME280;18731;42.830;24.390;2023-03-14T08:49:42;94211.94;;;17.55;21.17
32243;BME280;18731;42.830;24.390;2023-03-14T08:52:08;94209.38;;;17.87;21.40
32243;BME280;18731;42.830;24.390;2023-03-14T08:54:34;94211.72;;;17.89;20.70
32243;BME280;18731;42.830;24.390;2023-03-14T08:57:00;94219.56;;;18.33;21.85
32243;BME280;18731;42.830;24.390;2023-03-14T08:59:26;94215.75;;;18.48;22.94
32243;BME280;18731;42.830;24.390;2023-03-14T09:01:51;94213.47;;;18.79;22.65
32243;BME280;18731;42.830;24.390;2023-03-14T09:04:18;94206.50;;;18.92;21.52
32243;BME280;18731;42.830;24.390;2023-03-14T09:06:44;94209.59;;;19.08;22.52
32243;BME280;18731;42.830;24.390;2023-03-14T09:09:10;94208.03;;;19.21;21.46
32243;BME280;18731;42.830;24.390;2023-03-14T09:11:35;94194.09;;;19.26;19.40
32243;BME280;18731;42.830;24.390;2023-03-14T09:14:01;94192.50;;;19.50;21.13
32243;BME280;18731;42.830;24.390;2023-03-14T09:16:27;94199.84;;;19.61;18.94
32243;BME280;18731;42.830;24.390;2023-03-14T09:18:52;94187.38;;;19.84;20.70
32243;BME280;18731;42.830;24.390;2023-03-14T09:21:26;94196.50;;;20.15;19.75
32243;BME280;18731;42.830;24.390;2023-03-14T09:23:53;94193.69;;;20.40;19.05
32243;BME280;18731;42.830;24.390;2023-03-14T09:26:19;94184.34;;;20.48;19.36
32243;BME280;18731;42.830;24.390;2023-03-14T09:28:45;94184.47;;;20.86;18.95
32243;BME280;18731;42.830;24.390;2023-03-14T09:31:11;94176.00;;;20.73;18.18
32243;BME280;18731;42.830;24.390;2023-03-14T09:33:38;94166.09;;;21.04;19.02
32243;BME280;18731;42.830;24.390;2023-03-14T09:36:04;94166.72;;;21.23;17.41
32243;BME280;18731;42.830;24.390;2023-03-14T09:38:31;94162.16;;;21.09;17.52
32243;BME280;18731;42.830;24.390;2023-03-14T09:41:00;94157.22;;;21.41;18.24
32243;BME280;18731;42.830;24.390;2023-03-14T09:43:29;94153.56;;;21.86;18.65
32243;BME280;18731;42.830;24.390;2023-03-14T09:45:57;94144.59;;;21.89;16.86
32243;BME280;18731;42.830;24.390;2023-03-14T09:48:29;94144.81;;;22.05;16.09
32243;BME280;18731;42.830;24.390;2023-03-14T09:50:58;94125.75;;;22.35;17.71
32243;BME280;18731;42.830;24.390;2023-03-14T09:53:40;94124.16;;;22.11;15.87
32243;BME280;18731;42.830;24.390;2023-03-14T09:56:32;94116.66;;;22.45;17.34
32243;BME280;18731;42.830;24.390;2023-03-14T09:59:02;94119.22;;;23.03;17.17
32243;BME280;18731;42.830;24.390;2023-03-14T10:01:31;94093.91;;;23.26;17.02
32243;BME280;18731;42.830;24.390;2023-03-14T10:04:01;94106.38;;;23.66;15.85
32243;BME280;18731;42.830;24.390;2023-03-14T10:06:30;94103.88;;;23.76;16.07
32243;BME280;18731;42.830;24.390;2023-03-14T10:08:56;94093.59;;;23.63;15.65
32243;BME280;18731;42.830;24.390;2023-03-14T10:11:23;94090.88;;;23.63;17.90
32243;BME280;18731;42.830;24.390;2023-03-14T10:14:07;94090.31;;;24.08;15.16
32243;BME280;18731;42.830;24.390;2023-03-14T10:16:36;94073.09;;;24.11;15.70
32243;BME280;18731;42.830;24.390;2023-03-14T10:19:09;94076.81;;;24.53;15.31
32243;BME280;18731;42.830;24.390;2023-03-14T10:21:50;94078.19;;;24.29;15.68
32243;BME280;18731;42.830;24.390;2023-03-14T10:26:55;94063.72;;;24.12;15.57
32243;BME280;18731;42.830;24.390;2023-03-14T10:29:23;94059.50;;;24.60;15.89
32243;BME280;18731;42.830;24.390;2023-03-14T10:32:04;94058.13;;;24.68;14.63
32243;BME280;18731;42.830;24.390;2023-03-14T10:34:33;94042.91;;;24.99;16.86
32243;BME280;18731;42.830;24.390;2023-03-14T10:39:41;94036.88;;;25.62;15.29
32243;BME280;18731;42.830;24.390;2023-03-14T10:44:39;94018.63;;;25.18;15.31
32243;BME280;18731;42.830;24.390;2023-03-14T10:47:16;94020.56;;;25.59;15.93
32243;BME280;18731;42.830;24.390;2023-03-14T10:49:43;94012.84;;;25.83;16.45
32243;BME280;18731;42.830;24.390;2023-03-14T10:52:29;94014.81;;;25.95;16.46
32243;BME280;18731;42.830;24.390;2023-03-14T10:55:09;94005.63;;;25.89;14.12
32243;BME280;18731;42.830;24.390;2023-03-14T10:57:40;93992.63;;;25.68;13.87
32243;BME280;18731;42.830;24.390;2023-03-14T11:00:11;93987.34;;;25.60;15.06
32243;BME280;18731;42.830;24.390;2023-03-14T11:07:43;93978.03;;;25.45;15.48
32243;BME280;18731;42.830;24.390;2023-03-14T11:10:35;93964.00;;;25.18;16.30
32243;BME280;18731;42.830;24.390;2023-03-14T11:21:41;93940.38;;;24.98;18.87
32243;BME280;18731;42.830;24.390;2023-03-14T11:29:40;93924.28;;;24.59;18.08
32243;BME280;18731;42.830;24.390;2023-03-14T11:37:56;93900.06;;;23.99;18.70
32243;BME280;18731;42.830;24.390;2023-03-14T11:40:27;93894.75;;;24.41;18.39
32243;BME280;18731;42.830;24.390;2023-03-14T11:43:35;93894.19;;;24.75;20.58
32243;BME280;18731;42.830;24.390;2023-03-14T11:51:35;93878.84;;;24.94;16.35
32243;BME280;18731;42.830;24.390;2023-03-14T11:56:51;93877.66;;;24.53;19.61
32243;BME280;18731;42.830;24.390;2023-03-14T11:59:38;93869.53;;;24.37;17.91
32243;BME280;18731;42.830;24.390;2023-03-14T12:08:47;93852.13;;;24.02;19.26
32243;BME280;18731;42.830;24.390;2023-03-14T12:14:27;93852.00;;;24.51;17.75
32243;BME280;18731;42.830;24.390;2023-03-14T12:16:57;93835.03;;;24.72;18.81
32243;BME280;18731;42.830;24.390;2023-03-14T12:19:27;93839.16;;;24.64;18.16
32243;BME280;18731;42.830;24.390;2023-03-14T12:21:57;93834.94;;;24.34;17.75
32243;BME280;18731;42.830;24.390;2023-03-14T12:24:36;93830.72;;;24.46;18.97
32243;BME280;18731;42.830;24.390;2023-03-14T12:27:04;93833.44;;;24.46;17.56
32243;BME280;18731;42.830;24.390;2023-03-14T12:29:31;93835.16;;;24.40;17.53
32243;BME280;18731;42.830;24.390;2023-03-14T12:32:07;93826.00;;;24.33;19.05
32243;BME280;18731;42.830;24.390;2023-03-14T12:34:40;93814.47;;;24.26;18.35
32243;BME280;18731;42.830;24.390;2023-03-14T12:37:31;93823.78;;;24.28;18.60
32243;BME280;18731;42.830;24.390;2023-03-14T12:40:19;93807.94;;;24.23;17.92
32243;BME280;18731;42.830;24.390;2023-03-14T12:43:01;93805.41;;;24.16;18.09
32243;BME280;18731;42.830;24.390;2023-03-14T12:45:36;93803.59;;;23.81;17.65
32243;BME280;18731;42.830;24.390;2023-03-14T12:48:24;93803.09;;;23.86;18.77
32243;BME280;18731;42.830;24.390;2023-03-14T12:51:02;93799.19;;;24.16;18.73
32243;BME280;18731;42.830;24.390;2023-03-14T13:01:52;93786.25;;;23.75;18.45
32243;BME280;18731;42.830;24.390;2023-03-14T13:04:19;93785.75;;;23.63;18.91
32243;BME280;18731;42.830;24.390;2023-03-14T13:06:57;93780.03;;;23.25;18.11
32243;BME280;18731;42.830;24.390;2023-03-14T13:12:14;93773.50;;;23.55;18.38
32243;BME280;18731;42.830;24.390;2023-03-14T13:14:46;93780.28;;;23.15;18.39
32243;BME280;18731;42.830;24.390;2023-03-14T13:17:26;93783.34;;;23.00;18.30
32243;BME280;18731;42.830;24.390;2023-03-14T13:19:55;93779.69;;;22.71;18.64
32243;BME280;18731;42.830;24.390;2023-03-14T13:22:27;93777.25;;;22.76;19.14
32243;BME280;18731;42.830;24.390;2023-03-14T13:25:20;93772.38;;;22.68;20.66
32243;BME280;18731;42.830;24.390;2023-03-14T13:27:48;93766.31;;;22.80;20.98
32243;BME280;18731;42.830;24.390;2023-03-14T13:30:21;93764.41;;;22.77;20.54
32243;BME280;18731;42.830;24.390;2023-03-14T13:32:49;93766.00;;;22.38;18.72
32243;BME280;18731;42.830;24.390;2023-03-14T13:35:21;93761.72;;;22.21;19.54
32243;BME280;18731;42.830;24.390;2023-03-14T13:37:53;93759.03;;;22.37;21.09
32243;BME280;18731;42.830;24.390;2023-03-14T13:40:25;93757.91;;;22.55;21.13
32243;BME280;18731;42.830;24.390;2023-03-14T13:43:14;93752.72;;;22.60;20.36
32243;BME280;18731;42.830;24.390;2023-03-14T13:45:56;93756.06;;;22.68;19.08
32243;BME280;18731;42.830;24.390;2023-03-14T13:48:28;93738.44;;;22.92;19.46
32243;BME280;18731;42.830;24.390;2023-03-14T13:51:06;93731.19;;;23.34;19.33
32243;BME280;18731;42.830;24.390;2023-03-14T13:53:51;93733.16;;;23.50;18.50
32243;BME280;18731;42.830;24.390;2023-03-14T13:56:19;93728.69;;;23.72;19.04
32243;BME280;18731;42.830;24.390;2023-03-14T13:58:46;93725.69;;;24.25;18.05
32243;BME280;18731;42.830;24.390;2023-03-14T14:03:57;93720.09;;;24.83;17.83
32243;BME280;18731;42.830;24.390;2023-03-14T14:06:30;93719.75;;;24.93;17.80
32243;BME280;18731;42.830;24.390;2023-03-14T14:08:59;93713.97;;;24.79;18.06
32243;BME280;18731;42.830;24.390;2023-03-14T14:12:02;93707.97;;;24.46;17.34
32243;BME280;18731;42.830;24.390;2023-03-14T14:14:40;93702.66;;;24.13;18.61
32243;BME280;18731;42.830;24.390;2023-03-14T14:17:11;93699.94;;;23.39;18.96
32243;BME280;18731;42.830;24.390;2023-03-14T14:19:38;93700.31;;;23.08;20.20
32243;BME280;18731;42.830;24.390;2023-03-14T14:22:06;93685.50;;;22.77;20.48
32243;BME280;18731;42.830;24.390;2023-03-14T14:24:34;93694.53;;;22.02;19.97
32243;BME280;18731;42.830;24.390;2023-03-14T14:32:43;93686.69;;;21.01;21.21
32243;BME280;18731;42.830;24.390;2023-03-14T14:35:31;93681.66;;;21.00;22.21
32243;BME280;18731;42.830;24.390;2023-03-14T14:37:57;93686.34;;;20.72;21.99
32243;BME280;18731;42.830;24.390;2023-03-14T14:40:26;93679.47;;;20.37;21.96
32243;BME280;18731;42.830;24.390;2023-03-14T14:42:52;93671.19;;;20.21;23.66
32243;BME280;18731;42.830;24.390;2023-03-14T14:45:20;93686.13;;;20.06;23.19
32243;BME280;18731;42.830;24.390;2023-03-14T14:52:58;93656.69;;;19.06;24.41
32243;BME280;18731;42.830;24.390;2023-03-14T14:55:33;93666.31;;;18.66;24.42
32243;BME280;18731;42.830;24.390;2023-03-14T14:58:14;93656.84;;;18.36;25.31
32243;BME280;18731;42.830;24.390;2023-03-14T15:00:59;93662.47;;;18.00;25.78
32243;BME280;18731;42.830;24.390;2023-03-14T15:03:31;93655.59;;;17.85;25.68
32243;BME280;18731;42.830;24.390;2023-03-14T15:05:58;93653.75;;;17.64;27.17
32243;BME280;18731;42.830;24.390;2023-03-14T15:08:25;93653.00;;;17.57;26.90
32243;BME280;18731;42.830;24.390;2023-03-14T15:10:52;93652.72;;;17.33;26.18
32243;BME280;18731;42.830;24.390;2023-03-14T15:13:17;93653.88;;;17.25;26.65
32243;BME280;18731;42.830;24.390;2023-03-14T15:15:43;93641.59;;;17.17;28.17
32243;BME280;18731;42.830;24.390;2023-03-14T15:18:15;93630.47;;;16.90;26.95
32243;BME280;18731;42.830;24.390;2023-03-14T15:20:42;93643.19;;;16.83;27.83
32243;BME280;18731;42.830;24.390;2023-03-14T15:23:10;93635.09;;;16.61;27.48
32243;BME280;18731;42.830;24.390;2023-03-14T15:25:36;93629.34;;;16.52;28.55
32243;BME280;18731;42.830;24.390;2023-03-14T15:28:03;93633.56;;;16.32;27.43
32243;BME280;18731;42.830;24.390;2023-03-14T15:30:28;93609.72;;;16.16;29.34
32243;BME280;18731;42.830;24.390;2023-03-14T15:32:54;93637.41;;;16.17;27.97
32243;BME280;18731;42.830;24.390;2023-03-14T15:35:20;93630.47;;;16.01;28.84
32243;BME280;18731;42.830;24.390;2023-03-14T15:37:45;93636.22;;;15.96;28.53
32243;BME280;18731;42.830;24.390;2023-03-14T15:40:12;93640.44;;;15.83;30.18
32243;BME280;18731;42.830;24.390;2023-03-14T15:42:39;93632.72;;;15.71;30.14
32243;BME280;18731;42.830;24.390;2023-03-14T15:45:06;93641.09;;;15.59;28.87
32243;BME280;18731;42.830;24.390;2023-03-14T15:47:32;93641.78;;;15.41;30.02
32243;BME280;18731;42.830;24.390;2023-03-14T15:49:58;93646.34;;;15.27;29.97
32243;BME280;18731;42.830;24.390;2023-03-14T15:52:24;93644.78;;;15.22;30.34
32243;BME280;18731;42.830;24.390;2023-03-14T15:54:49;93634.00;;;15.19;30.86
32243;BME280;18731;42.830;24.390;2023-03-14T15:57:15;93632.38;;;15.00;29.98
32243;BME280;18731;42.830;24.390;2023-03-14T15:59:41;93617.66;;;14.76;30.37
32243;BME280;18731;42.830;24.390;2023-03-14T16:02:07;93633.06;;;14.83;29.89
32243;BME280;18731;42.830;24.390;2023-03-14T16:04:33;93634.09;;;14.64;30.29
32243;BME280;18731;42.830;24.390;2023-03-14T16:06:59;93624.28;;;14.38;30.48
32243;BME280;18731;42.830;24.390;2023-03-14T16:09:24;93624.56;;;14.26;32.14
32243;BME280;18731;42.830;24.390;2023-03-14T16:11:51;93633.69;;;14.14;30.94
32243;BME280;18731;42.830;24.390;2023-03-14T16:14:17;93625.47;;;13.96;31.61
32243;BME280;18731;42.830;24.390;2023-03-14T16:16:42;93633.00;;;13.83;32.27
32243;BME280;18731;42.830;24.390;2023-03-14T16:19:08;93628.69;;;13.72;32.52
32243;BME280;18731;42.830;24.390;2023-03-14T16:21:34;93632.34;;;13.57;32.34
32243;BME280;18731;42.830;24.390;2023-03-14T16:23:59;93634.88;;;13.42;33.14
32243;BME280;18731;42.830;24.390;2023-03-14T16:26:27;93634.69;;;13.25;33.00
32243;BME280;18731;42.830;24.390;2023-03-14T16:28:52;93637.56;;;13.12;32.98
32243;BME280;18731;42.830;24.390;2023-03-14T16:31:19;93637.44;;;13.02;34.57
32243;BME280;18731;42.830;24.390;2023-03-14T16:33:49;93642.66;;;12.95;33.49
32243;BME280;18731;42.830;24.390;2023-03-14T16:36:15;93625.91;;;12.71;33.31
32243;BME280;18731;42.830;24.390;2023-03-14T16:38:42;93634.56;;;12.61;34.36
32243;BME280;18731;42.830;24.390;2023-03-14T16:41:13;93638.25;;;12.53;33.36
32243;BME280;18731;42.830;24.390;2023-03-14T16:43:39;93636.66;;;12.48;32.92
32243;BME280;18731;42.830;24.390;2023-03-14T16:46:07;93619.22;;;12.32;34.48
32243;BME280;18731;42.830;24.390;2023-03-14T16:48:35;93626.28;;;12.20;34.40
32243;BME280;18731;42.830;24.390;2023-03-14T16:51:01;93621.53;;;12.10;34.23
32243;BME280;18731;42.830;24.390;2023-03-14T16:53:27;93624.94;;;12.07;34.30
32243;BME280;18731;42.830;24.390;2023-03-14T16:55:55;93629.44;;;12.03;34.28
32243;BME280;18731;42.830;24.390;2023-03-14T16:58:21;93622.88;;;11.97;34.66
32243;BME280;18731;42.830;24.390;2023-03-14T17:00:47;93606.88;;;11.78;34.64
32243;BME280;18731;42.830;24.390;2023-03-14T17:03:14;93614.19;;;11.81;34.78
32243;BME280;18731;42.830;24.390;2023-03-14T17:05:47;93608.72;;;11.54;36.08
32243;BME280;18731;42.830;24.390;2023-03-14T17:08:14;93619.66;;;11.46;35.98
32243;BME280;18731;42.830;24.390;2023-03-14T17:10:40;93615.28;;;11.38;36.54
32243;BME280;18731;42.830;24.390;2023-03-14T17:13:06;93610.81;;;11.22;36.02
32243;BME280;18731;42.830;24.390;2023-03-14T17:15:31;93609.84;;;11.11;36.53
32243;BME280;18731;42.830;24.390;2023-03-14T17:17:57;93614.81;;;11.13;36.06
32243;BME280;18731;42.830;24.390;2023-03-14T17:20:23;93588.19;;;10.97;36.00
32243;BME280;18731;42.830;24.390;2023-03-14T17:22:48;93588.81;;;10.90;35.90
32243;BME280;18731;42.830;24.390;2023-03-14T17:25:14;93598.72;;;10.90;36.14
32243;BME280;18731;42.830;24.390;2023-03-14T17:27:40;93604.69;;;10.83;36.49
32243;BME280;18731;42.830;24.390;2023-03-14T17:30:06;93592.25;;;10.72;37.12
32243;BME280;18731;42.830;24.390;2023-03-14T17:32:32;93607.06;;;10.69;37.17
32243;BME280;18731;42.830;24.390;2023-03-14T17:34:58;93590.41;;;10.56;36.53
32243;BME280;18731;42.830;24.390;2023-03-14T17:37:23;93603.66;;;10.53;37.28
32243;BME280;18731;42.830;24.390;2023-03-14T17:39:49;93608.84;;;10.46;37.38
32243;BME280;18731;42.830;24.390;2023-03-14T17:42:15;93619.34;;;10.39;38.29
32243;BME280;18731;42.830;24.390;2023-03-14T17:44:40;93599.38;;;10.17;39.37
32243;BME280;18731;42.830;24.390;2023-03-14T17:47:07;93618.41;;;10.15;39.09
32243;BME280;18731;42.830;24.390;2023-03-14T17:49:32;93617.69;;;10.18;39.22
32243;BME280;18731;42.830;24.390;2023-03-14T17:51:58;93617.38;;;10.04;39.95
32243;BME280;18731;42.830;24.390;2023-03-14T17:54:24;93613.66;;;10.09;39.08
32243;BME280;18731;42.830;24.390;2023-03-14T17:56:49;93616.50;;;10.00;41.36
32243;BME280;18731;42.830;24.390;2023-03-14T17:59:15;93610.16;;;9.89;39.39
32243;BME280;18731;42.830;24.390;2023-03-14T18:01:41;93609.56;;;9.80;40.92
32243;BME280;18731;42.830;24.390;2023-03-14T18:04:07;93612.91;;;9.77;40.62
32243;BME280;18731;42.830;24.390;2023-03-14T18:06:33;93612.38;;;9.71;41.28
32243;BME280;18731;42.830;24.390;2023-03-14T18:08:59;93609.72;;;9.71;41.20
32243;BME280;18731;42.830;24.390;2023-03-14T18:11:26;93609.19;;;9.65;40.86
32243;BME280;18731;42.830;24.390;2023-03-14T18:13:52;93614.97;;;9.67;40.41
32243;BME280;18731;42.830;24.390;2023-03-14T18:16:18;93609.28;;;9.69;40.69